Detall de PIREP

Printer-friendly versionPDF version

[2011/12/08 18:54:00]
Flight IATA:CT3119
Pilot Number:026
Company ICAO:CAT
Aircraft Type:DC85/A
PAX:132
Departing Airport: LFMP
Destination Airport: LEPA
Alternate Airport:LEMH
Online: VATSIM
Route:BGR A27 KENAS
Flight Level:F190
No Slew and time accel
No pause
Crash detect
Detect pilot in Cockpit between each 30 and 45 minutes
18:54 Zero fuel Weight: 179020 Lbs, Fuel Weight: 24001 Lbs
18:54 VATSIM:LFMP 081830Z AUTO 28005KT 9999 NSC 09/06 Q1026
18:54 VATSIM:LEPA 081830Z 00000KT 9999 FEW018 12/11 Q1027 NOSIG
18:54 VOICE CATALONIAN / IATA CT3119
18:59 Parking Brakes off
19:07 Take-off
19:07 Take off Weight: 202077 Lbs
19:07 Wind: 282º @ 005 Knots Heading: 327º
19:07 POS N42º 44´ 58´´ E002º 51´ 55´´
19:07 Gear Up: 156 Knots
19:07 Flaps:2 at 156 Knots
19:08 Flaps:1 at 196 Knots
19:09 Flaps:0 at 211 Knots
19:16 TOC
19:16 Fuel Weight: 19879 Lb
19:22 Wind:247º@001 Knots Heading: 175º Ground Speed: 398 Knots Altitude 19383 ft
19:33 TOD
19:33 Fuel Weight: 16131 Lb
19:37 Wind:277º@002 Knots Heading: 163º Ground Speed: 390 Knots Altitude 14566 ft
19:45 Flaps:1 at 180 Knots
19:48 Gear Down: 189 Knots
19:49 Flaps:2 at 143 Knots
19:49 Flaps:3 at 148 Knots
19:50 Flaps:4 at 149 Knots
19:51 Flaps:5 at 132 Knots
19:51 TouchDown:Rate -594 ft/min Speed: 115 Knots
19:51 VATSIM:LEPA 081930Z 00000KT 8000 FEW010 10/10 Q1027 NOSIG
19:51 Land
19:51 Wind:318º@000 Knots
19:51 Heading: 239º
19:51 Flight Duration: 00:44
19:51 Landing Weight: 193527 Lbs
19:51 POS N39º 33´ 01´´ E002º 45´ 03´´
19:56 Parking brakes on
19:56 Block to Block Duration: 00:57
19:56 Final Fuel: 14232 Lbls
19:56 Spent Fuel: 9768 Lbls
19:56 Flight Length: 244 NM
19:56 TOD Land Length: 83 NM

Exportar CSV

Powered by Drupal - Modified by Danger4k